Check out our new PWSWeather beta!
PWSweather.com
Personal Weather Stations
Station Observations
PICKERING
North Yorkshire, PickeringGB

North YorkshirePickeringGB

Lat: 54.2494, Lon: -0.7725

Elevation: 192

Station Type: Oregon Scientific WMR100

High Low Average
Temperature 69.1°F20.6°C 47.3°F8.5°C 56.2°F13.4°C
Dew Point 57.2°F14.0°C 42.8°F6.0°C 48.9°F9.4°C
Winds 7.0 mph 11.3 kmh Calm Calm 3.0 mph S4.8 kmh S
Wind Gusts 12.5 mph20.1 kmh -- 5.0 mph8.0 kmh
Humidity 80% 65% 75%
Pressure 29.92 in1013.2 mb 29.74 in1007.1 mb -
Precipitation 0.29 in7.4 mm - -
Hour Temp Dew Point Humidity Winds Wind Gusts Pressure Precip Precip Rate Daily Precip Total
12:00 AM 53.8°F12.1°C 44.6°F7.0°C 70% 4.0 mph WSW6.4 kmh WSW 6.5 mph10.5 kmh 29.74 in1007.1 mb 0.00 in0.0 mm 0.00 in0.0 mm 0.00 in0.0 mm
12:05 AM 53.6°F12.0°C 44.6°F7.0°C 70% 5.6 mph WSW9.0 kmh WSW 10.3 mph16.6 kmh 29.74 in1007.1 mb 0.00 in0.0 mm 0.00 in0.0 mm 0.00 in0.0 mm
12:10 AM 53.6°F12.0°C 44.6°F7.0°C 70% 5.5 mph WSW8.9 kmh WSW 10.3 mph16.6 kmh 29.74 in1007.1 mb 0.00 in0.0 mm 0.00 in0.0 mm 0.00 in0.0 mm
12:15 AM 53.6°F12.0°C 44.6°F7.0°C 71% 4.2 mph WSW6.8 kmh WSW 6.9 mph11.1 kmh 29.74 in1007.1 mb 0.00 in0.0 mm 0.00 in0.0 mm 0.00 in0.0 mm
12:20 AM 53.6°F12.0°C 44.6°F7.0°C 70% 4.3 mph WSW6.9 kmh WSW 6.9 mph11.1 kmh 29.74 in1007.1 mb 0.00 in0.0 mm 0.00 in0.0 mm 0.00 in0.0 mm
12:25 AM 53.6°F12.0°C 44.6°F7.0°C 71% 4.3 mph WSW6.9 kmh WSW 6.5 mph10.5 kmh 29.74 in1007.1 mb 0.00 in0.0 mm 0.00 in0.0 mm 0.00 in0.0 mm
12:30 AM 53.6°F12.0°C 44.6°F7.0°C 71% 4.4 mph WSW7.1 kmh WSW 7.4 mph11.9 kmh 29.74 in1007.1 mb 0.00 in0.0 mm 0.00 in0.0 mm 0.00 in0.0 mm
12:35 AM 53.4°F11.9°C 44.6°F7.0°C 71% 3.5 mph WSW5.6 kmh WSW 7.4 mph11.9 kmh 29.74 in1007.1 mb 0.00 in0.0 mm 0.00 in0.0 mm 0.00 in0.0 mm
12:40 AM 53.6°F12.0°C 44.6°F7.0°C 71% 2.9 mph WSW4.7 kmh WSW 6.0 mph9.7 kmh 29.74 in1007.1 mb 0.00 in0.0 mm 0.00 in0.0 mm 0.00 in0.0 mm
12:45 AM 53.6°F12.0°C 44.6°F7.0°C 71% 3.7 mph WSW6.0 kmh WSW 6.0 mph9.7 kmh 29.74 in1007.1 mb 0.00 in0.0 mm 0.00 in0.0 mm 0.00 in0.0 mm
12:50 AM 53.4°F11.9°C 44.6°F7.0°C 71% 4.5 mph WSW7.2 kmh WSW 7.8 mph12.6 kmh 29.74 in1007.1 mb 0.00 in0.0 mm 0.00 in0.0 mm 0.00 in0.0 mm
12:55 AM 53.4°F11.9°C 44.6°F7.0°C 71% 4.4 mph WSW7.1 kmh WSW 7.8 mph12.6 kmh 29.74 in1007.1 mb 0.00 in0.0 mm 0.00 in0.0 mm 0.00 in0.0 mm
01:00 AM 53.4°F11.9°C 44.6°F7.0°C 71% 3.9 mph W6.3 kmh W 6.0 mph9.7 kmh 29.74 in1007.1 mb 0.00 in0.0 mm 0.00 in0.0 mm 0.00 in0.0 mm
01:05 AM 53.6°F12.0°C 44.6°F7.0°C 71% 4.2 mph W6.8 kmh W 6.5 mph10.5 kmh 29.74 in1007.1 mb 0.00 in0.0 mm 0.00 in0.0 mm 0.00 in0.0 mm
01:10 AM 53.6°F12.0°C 44.6°F7.0°C 71% 4.5 mph WSW7.2 kmh WSW 6.5 mph10.5 kmh 29.74 in1007.1 mb 0.00 in0.0 mm 0.00 in0.0 mm 0.00 in0.0 mm
01:15 AM 53.6°F12.0°C 44.6°F7.0°C 71% 4.2 mph WSW6.8 kmh WSW 5.8 mph9.3 kmh 29.74 in1007.1 mb 0.00 in0.0 mm 0.00 in0.0 mm 0.00 in0.0 mm
01:20 AM 53.6°F12.0°C 44.6°F7.0°C 71% 4.4 mph WSW7.1 kmh WSW 7.8 mph12.6 kmh 29.74 in1007.1 mb 0.00 in0.0 mm 0.00 in0.0 mm 0.00 in0.0 mm
01:25 AM 53.6°F12.0°C 44.6°F7.0°C 71% 3.9 mph WSW6.3 kmh WSW 7.8 mph12.6 kmh 29.74 in1007.1 mb 0.00 in0.0 mm 0.00 in0.0 mm 0.00 in0.0 mm
01:30 AM 53.8°F12.1°C 44.6°F7.0°C 71% 3.3 mph W5.3 kmh W 4.9 mph7.9 kmh 29.74 in1007.1 mb 0.00 in0.0 mm 0.00 in0.0 mm 0.00 in0.0 mm
01:35 AM 53.8°F12.1°C 44.6°F7.0°C 71% 3.3 mph W5.3 kmh W 4.9 mph7.9 kmh 29.74 in1007.1 mb 0.00 in0.0 mm 0.00 in0.0 mm 0.00 in0.0 mm
01:40 AM 53.8°F12.1°C 44.6°F7.0°C 71% 3.6 mph WSW5.8 kmh WSW 5.4 mph8.7 kmh 29.77 in1008.1 mb 0.00 in0.0 mm 0.00 in0.0 mm 0.00 in0.0 mm
01:45 AM 53.8°F12.1°C 44.6°F7.0°C 71% 4.2 mph WSW6.8 kmh WSW 5.8 mph9.3 kmh 29.77 in1008.1 mb 0.00 in0.0 mm 0.00 in0.0 mm 0.00 in0.0 mm
01:50 AM 53.6°F12.0°C 44.6°F7.0°C 71% 4.4 mph WSW7.1 kmh WSW 7.2 mph11.6 kmh 29.77 in1008.1 mb 0.00 in0.0 mm 0.00 in0.0 mm 0.00 in0.0 mm
01:55 AM 53.6°F12.0°C 44.6°F7.0°C 71% 5.0 mph WSW8.0 kmh WSW 7.4 mph11.9 kmh 29.74 in1007.1 mb 0.00 in0.0 mm 0.00 in0.0 mm 0.00 in0.0 mm
02:00 AM 53.4°F11.9°C 44.6°F7.0°C 71% 5.2 mph WSW8.4 kmh WSW 7.6 mph12.2 kmh 29.74 in1007.1 mb 0.00 in0.0 mm 0.00 in0.0 mm 0.00 in0.0 mm
02:05 AM 53.2°F11.8°C 44.6°F7.0°C 71% 4.1 mph W6.6 kmh W 7.6 mph12.2 kmh 29.74 in1007.1 mb 0.00 in0.0 mm 0.00 in0.0 mm 0.00 in0.0 mm
02:10 AM 53.2°F11.8°C 44.6°F7.0°C 72% 4.2 mph W6.8 kmh W 7.6 mph12.2 kmh 29.77 in1008.1 mb 0.00 in0.0 mm 0.00 in0.0 mm 0.00 in0.0 mm
02:15 AM 53.1°F11.7°C 44.6°F7.0°C 72% 4.4 mph WSW7.1 kmh WSW 7.2 mph11.6 kmh 29.77 in1008.1 mb 0.00 in0.0 mm 0.00 in0.0 mm 0.00 in0.0 mm
02:20 AM 53.1°F11.7°C 44.6°F7.0°C 71% 5.2 mph WSW8.4 kmh WSW 7.6 mph12.2 kmh 29.77 in1008.1 mb 0.00 in0.0 mm 0.00 in0.0 mm 0.00 in0.0 mm
02:25 AM 53.1°F11.7°C 44.6°F7.0°C 72% 4.6 mph WSW7.4 kmh WSW 7.6 mph12.2 kmh 29.77 in1008.1 mb 0.00 in0.0 mm 0.00 in0.0 mm 0.00 in0.0 mm
02:30 AM 53.1°F11.7°C 44.6°F7.0°C 72% 3.4 mph WSW5.5 kmh WSW 5.6 mph9.0 kmh 29.77 in1008.1 mb 0.00 in0.0 mm 0.00 in0.0 mm 0.00 in0.0 mm
02:35 AM 53.1°F11.7°C 44.6°F7.0°C 72% 2.9 mph WSW4.7 kmh WSW 4.7 mph7.6 kmh 29.77 in1008.1 mb 0.00 in0.0 mm 0.00 in0.0 mm 0.00 in0.0 mm
02:40 AM 53.1°F11.7°C 44.6°F7.0°C 72% 2.6 mph WSW4.2 kmh WSW 4.7 mph7.6 kmh 29.77 in1008.1 mb 0.00 in0.0 mm 0.00 in0.0 mm 0.00 in0.0 mm
02:45 AM 53.1°F11.7°C 44.6°F7.0°C 72% 2.7 mph WSW4.3 kmh WSW 3.8 mph6.1 kmh 29.77 in1008.1 mb 0.00 in0.0 mm 0.00 in0.0 mm 0.00 in0.0 mm
02:50 AM 53.1°F11.7°C 44.6°F7.0°C 72% 3.2 mph WSW5.1 kmh WSW 4.9 mph7.9 kmh 29.77 in1008.1 mb 0.00 in0.0 mm 0.00 in0.0 mm 0.00 in0.0 mm
02:55 AM 53.1°F11.7°C 44.6°F7.0°C 73% 3.1 mph WSW5.0 kmh WSW 4.9 mph7.9 kmh 29.77 in1008.1 mb 0.00 in0.0 mm 0.00 in0.0 mm 0.00 in0.0 mm
03:00 AM 53.1°F11.7°C 44.6°F7.0°C 73% 2.7 mph WSW4.3 kmh WSW 3.8 mph6.1 kmh 29.77 in1008.1 mb 0.00 in0.0 mm 0.00 in0.0 mm 0.00 in0.0 mm
03:05 AM 53.1°F11.7°C 44.6°F7.0°C 73% 2.7 mph WSW4.3 kmh WSW 3.6 mph5.8 kmh 29.77 in1008.1 mb 0.00 in0.0 mm 0.00 in0.0 mm 0.00 in0.0 mm
03:10 AM 53.1°F11.7°C 44.6°F7.0°C 74% 2.3 mph W3.7 kmh W 3.6 mph5.8 kmh 29.77 in1008.1 mb 0.00 in0.0 mm 0.00 in0.0 mm 0.00 in0.0 mm
03:15 AM 53.1°F11.7°C 44.6°F7.0°C 74% 1.9 mph NW3.1 kmh NW 2.9 mph4.7 kmh 29.77 in1008.1 mb 0.00 in0.0 mm 0.00 in0.0 mm 0.00 in0.0 mm
03:20 AM 53.1°F11.7°C 44.6°F7.0°C 74% 1.7 mph NW2.7 kmh NW 2.9 mph4.7 kmh 29.77 in1008.1 mb 0.00 in0.0 mm 0.00 in0.0 mm 0.00 in0.0 mm
03:25 AM 53.1°F11.7°C 44.6°F7.0°C 74% 1.4 mph NW2.3 kmh NW 2.5 mph4.0 kmh 29.77 in1008.1 mb 0.00 in0.0 mm 0.00 in0.0 mm 0.00 in0.0 mm
03:30 AM 52.9°F11.6°C 44.6°F7.0°C 74% 1.6 mph WNW2.6 kmh WNW 2.7 mph4.3 kmh 29.77 in1008.1 mb 0.00 in0.0 mm 0.00 in0.0 mm 0.00 in0.0 mm
03:35 AM 53.1°F11.7°C 44.6°F7.0°C 74% 1.5 mph WNW2.4 kmh WNW 2.7 mph4.3 kmh 29.77 in1008.1 mb 0.00 in0.0 mm 0.00 in0.0 mm 0.00 in0.0 mm
03:40 AM 53.1°F11.7°C 46.4°F8.0°C 75% 1.1 mph WNW1.8 kmh WNW 2.2 mph3.5 kmh 29.77 in1008.1 mb 0.00 in0.0 mm 0.00 in0.0 mm 0.00 in0.0 mm
03:45 AM 52.9°F11.6°C 44.6°F7.0°C 74% 1.6 mph W2.6 kmh W 2.9 mph4.7 kmh 29.77 in1008.1 mb 0.00 in0.0 mm 0.00 in0.0 mm 0.00 in0.0 mm
03:50 AM 52.9°F11.6°C 44.6°F7.0°C 74% 2.6 mph WSW4.2 kmh WSW 3.8 mph6.1 kmh 29.77 in1008.1 mb 0.00 in0.0 mm 0.00 in0.0 mm 0.00 in0.0 mm
03:55 AM 52.9°F11.6°C 44.6°F7.0°C 74% 3.0 mph WSW4.8 kmh WSW 3.8 mph6.1 kmh 29.77 in1008.1 mb 0.00 in0.0 mm 0.00 in0.0 mm 0.00 in0.0 mm
04:00 AM 52.9°F11.6°C 44.6°F7.0°C 74% 2.8 mph W4.5 kmh W 3.6 mph5.8 kmh 29.77 in1008.1 mb 0.00 in0.0 mm 0.00 in0.0 mm 0.00 in0.0 mm
04:05 AM 52.9°F11.6°C 44.6°F7.0°C 74% 2.5 mph W4.0 kmh W 3.6 mph5.8 kmh 29.77 in1008.1 mb 0.00 in0.0 mm 0.00 in0.0 mm 0.00 in0.0 mm
04:10 AM 52.7°F11.5°C 44.6°F7.0°C 74% 2.6 mph W4.2 kmh W 3.6 mph5.8 kmh 29.77 in1008.1 mb 0.00 in0.0 mm 0.00 in0.0 mm 0.00 in0.0 mm
04:15 AM 52.7°F11.5°C 46.4°F8.0°C 75% 2.6 mph W4.2 kmh W 3.6 mph5.8 kmh 29.77 in1008.1 mb 0.00 in0.0 mm 0.00 in0.0 mm 0.00 in0.0 mm
04:20 AM 52.7°F11.5°C 46.4°F8.0°C 75% 2.6 mph WSW4.2 kmh WSW 4.7 mph7.6 kmh 29.77 in1008.1 mb 0.00 in0.0 mm 0.00 in0.0 mm 0.00 in0.0 mm
04:25 AM 52.9°F11.6°C 46.4°F8.0°C 75% 2.6 mph WSW4.2 kmh WSW 4.7 mph7.6 kmh 29.77 in1008.1 mb 0.00 in0.0 mm 0.00 in0.0 mm 0.00 in0.0 mm
04:30 AM 52.9°F11.6°C 46.4°F8.0°C 75% 2.6 mph WSW4.2 kmh WSW 4.9 mph7.9 kmh 29.77 in1008.1 mb 0.00 in0.0 mm 0.00 in0.0 mm 0.00 in0.0 mm
04:35 AM 52.9°F11.6°C 46.4°F8.0°C 75% 3.0 mph WSW4.8 kmh WSW 4.9 mph7.9 kmh 29.77 in1008.1 mb 0.00 in0.0 mm 0.00 in0.0 mm 0.00 in0.0 mm
04:40 AM 52.9°F11.6°C 46.4°F8.0°C 76% 3.2 mph W5.1 kmh W 4.3 mph6.9 kmh 29.80 in1009.1 mb 0.00 in0.0 mm 0.00 in0.0 mm 0.00 in0.0 mm
04:45 AM 52.9°F11.6°C 46.4°F8.0°C 76% 2.8 mph WNW4.5 kmh WNW 4.7 mph7.6 kmh 29.80 in1009.1 mb 0.00 in0.0 mm 0.00 in0.0 mm 0.00 in0.0 mm
04:50 AM 52.9°F11.6°C 46.4°F8.0°C 77% 2.4 mph WNW3.9 kmh WNW 4.7 mph7.6 kmh 29.80 in1009.1 mb 0.00 in0.0 mm 0.00 in0.0 mm 0.00 in0.0 mm
04:55 AM 52.9°F11.6°C 46.4°F8.0°C 77% 2.1 mph WNW3.4 kmh WNW 3.8 mph6.1 kmh 29.80 in1009.1 mb 0.00 in0.0 mm 0.00 in0.0 mm 0.00 in0.0 mm
05:00 AM 52.9°F11.6°C 46.4°F8.0°C 77% 2.4 mph W3.9 kmh W 3.8 mph6.1 kmh 29.80 in1009.1 mb 0.00 in0.0 mm 0.00 in0.0 mm 0.00 in0.0 mm
05:05 AM 52.7°F11.5°C 46.4°F8.0°C 76% 2.8 mph WSW4.5 kmh WSW 3.4 mph5.5 kmh 29.80 in1009.1 mb 0.00 in0.0 mm 0.00 in0.0 mm 0.00 in0.0 mm
05:10 AM 52.9°F11.6°C 46.4°F8.0°C 76% 2.7 mph WSW4.3 kmh WSW 3.6 mph5.8 kmh 29.80 in1009.1 mb 0.00 in0.0 mm 0.00 in0.0 mm 0.00 in0.0 mm
05:15 AM 52.9°F11.6°C 46.4°F8.0°C 77% 1.9 mph WSW3.1 kmh WSW 3.6 mph5.8 kmh 29.80 in1009.1 mb 0.00 in0.0 mm 0.00 in0.0 mm 0.00 in0.0 mm
05:20 AM 53.1°F11.7°C 46.4°F8.0°C 77% 1.3 mph WSW2.1 kmh WSW 2.2 mph3.5 kmh 29.80 in1009.1 mb 0.00 in0.0 mm 0.00 in0.0 mm 0.00 in0.0 mm
05:25 AM 53.1°F11.7°C 46.4°F8.0°C 76% 1.4 mph WSW2.3 kmh WSW 2.9 mph4.7 kmh 29.80 in1009.1 mb 0.00 in0.0 mm 0.00 in0.0 mm 0.00 in0.0 mm
05:30 AM 53.2°F11.8°C 46.4°F8.0°C 77% 1.6 mph WSW2.6 kmh WSW 2.9 mph4.7 kmh 29.80 in1009.1 mb 0.00 in0.0 mm 0.00 in0.0 mm 0.00 in0.0 mm
05:35 AM 53.2°F11.8°C 46.4°F8.0°C 77% 1.7 mph WSW2.7 kmh WSW 2.9 mph4.7 kmh 29.80 in1009.1 mb 0.00 in0.0 mm 0.00 in0.0 mm 0.00 in0.0 mm
05:40 AM 53.4°F11.9°C 46.4°F8.0°C 76% 1.7 mph WSW2.7 kmh WSW 2.9 mph4.7 kmh 29.80 in1009.1 mb 0.00 in0.0 mm 0.00 in0.0 mm 0.00 in0.0 mm
05:45 AM 53.6°F12.0°C 46.4°F8.0°C 76% 1.9 mph WSW3.1 kmh WSW 2.9 mph4.7 kmh 29.80 in1009.1 mb 0.00 in0.0 mm 0.00 in0.0 mm 0.00 in0.0 mm
05:50 AM 53.8°F12.1°C 46.4°F8.0°C 76% 2.2 mph WSW3.5 kmh WSW 2.9 mph4.7 kmh 29.80 in1009.1 mb 0.00 in0.0 mm 0.00 in0.0 mm 0.00 in0.0 mm
05:55 AM 53.8°F12.1°C 46.4°F8.0°C 76% 2.4 mph W3.9 kmh W 4.3 mph6.9 kmh 29.80 in1009.1 mb 0.00 in0.0 mm 0.00 in0.0 mm 0.00 in0.0 mm
06:00 AM 53.8°F12.1°C 46.4°F8.0°C 76% 2.4 mph W3.9 kmh W 4.3 mph6.9 kmh 29.80 in1009.1 mb 0.00 in0.0 mm 0.00 in0.0 mm 0.00 in0.0 mm
06:05 AM 54.0°F12.2°C 46.4°F8.0°C 76% 2.5 mph W4.0 kmh W 2.9 mph4.7 kmh 29.80 in1009.1 mb 0.00 in0.0 mm 0.00 in0.0 mm 0.00 in0.0 mm
06:10 AM 54.0°F12.2°C 46.4°F8.0°C 76% 2.5 mph WSW4.0 kmh WSW 3.4 mph5.5 kmh 29.80 in1009.1 mb 0.00 in0.0 mm 0.00 in0.0 mm 0.00 in0.0 mm
06:15 AM 54.1°F12.3°C 48.2°F9.0°C 76% 2.2 mph WSW3.5 kmh WSW 4.0 mph6.4 kmh 29.80 in1009.1 mb 0.00 in0.0 mm 0.00 in0.0 mm 0.00 in0.0 mm
06:20 AM 54.1°F12.3°C 48.2°F9.0°C 76% 1.6 mph WSW2.6 kmh WSW 4.0 mph6.4 kmh 29.80 in1009.1 mb 0.00 in0.0 mm 0.00 in0.0 mm 0.00 in0.0 mm
06:25 AM 54.1°F12.3°C 48.2°F9.0°C 76% 0.8 mph W1.3 kmh W 2.0 mph3.2 kmh 29.80 in1009.1 mb 0.00 in0.0 mm 0.00 in0.0 mm 0.00 in0.0 mm
06:30 AM 54.1°F12.3°C 48.2°F9.0°C 76% 1.4 mph W2.3 kmh W 3.8 mph6.1 kmh 29.80 in1009.1 mb 0.00 in0.0 mm 0.00 in0.0 mm 0.00 in0.0 mm
06:35 AM 54.1°F12.3°C 48.2°F9.0°C 76% 2.2 mph WSW3.5 kmh WSW 3.8 mph6.1 kmh 29.80 in1009.1 mb 0.00 in0.0 mm 0.00 in0.0 mm 0.00 in0.0 mm
06:40 AM 54.3°F12.4°C 48.2°F9.0°C 76% 1.7 mph WSW2.7 kmh WSW 3.4 mph5.5 kmh 29.80 in1009.1 mb 0.00 in0.0 mm 0.00 in0.0 mm 0.00 in0.0 mm
06:45 AM 54.5°F12.5°C 48.2°F9.0°C 75% 1.4 mph W2.3 kmh W 3.1 mph5.0 kmh 29.80 in1009.1 mb 0.00 in0.0 mm 0.00 in0.0 mm 0.00 in0.0 mm
06:50 AM 54.5°F12.5°C 48.2°F9.0°C 75% 2.3 mph W3.7 kmh W 3.6 mph5.8 kmh 29.80 in1009.1 mb 0.00 in0.0 mm 0.00 in0.0 mm 0.00 in0.0 mm
06:55 AM 54.7°F12.6°C 48.2°F9.0°C 75% 2.7 mph WSW4.3 kmh WSW 4.3 mph6.9 kmh 29.80 in1009.1 mb 0.00 in0.0 mm 0.00 in0.0 mm 0.00 in0.0 mm
07:00 AM 55.0°F12.8°C 48.2°F9.0°C 75% 2.7 mph WSW4.3 kmh WSW 4.3 mph6.9 kmh 29.80 in1009.1 mb 0.00 in0.0 mm 0.00 in0.0 mm 0.00 in0.0 mm
07:05 AM 55.0°F12.8°C 48.2°F9.0°C 75% 2.4 mph WSW3.9 kmh WSW 3.8 mph6.1 kmh 29.80 in1009.1 mb 0.00 in0.0 mm 0.00 in0.0 mm 0.00 in0.0 mm
07:10 AM 55.2°F12.9°C 48.2°F9.0°C 75% 2.7 mph WSW4.3 kmh WSW 3.8 mph6.1 kmh 29.83 in1010.2 mb 0.00 in0.0 mm 0.00 in0.0 mm 0.00 in0.0 mm
07:15 AM 55.0°F12.8°C 48.2°F9.0°C 75% 2.8 mph W4.5 kmh W 3.8 mph6.1 kmh 29.83 in1010.2 mb 0.00 in0.0 mm 0.00 in0.0 mm 0.00 in0.0 mm
07:20 AM 55.0°F12.8°C 48.2°F9.0°C 75% 2.6 mph WNW4.2 kmh WNW 3.8 mph6.1 kmh 29.83 in1010.2 mb 0.00 in0.0 mm 0.00 in0.0 mm 0.00 in0.0 mm
07:25 AM 55.0°F12.8°C 48.2°F9.0°C 76% 2.4 mph WNW3.9 kmh WNW 3.1 mph5.0 kmh 29.83 in1010.2 mb 0.00 in0.0 mm 0.00 in0.0 mm 0.00 in0.0 mm
07:30 AM 54.9°F12.7°C 48.2°F9.0°C 75% 2.7 mph WSW4.3 kmh WSW 3.6 mph5.8 kmh 29.83 in1010.2 mb 0.00 in0.0 mm 0.00 in0.0 mm 0.00 in0.0 mm
07:35 AM 54.9°F12.7°C 48.2°F9.0°C 76% 3.0 mph WSW4.8 kmh WSW 3.6 mph5.8 kmh 29.83 in1010.2 mb 0.00 in0.0 mm 0.00 in0.0 mm 0.00 in0.0 mm
07:40 AM 54.7°F12.6°C 48.2°F9.0°C 76% 2.7 mph W4.3 kmh W 3.4 mph5.5 kmh 29.83 in1010.2 mb 0.00 in0.0 mm 0.00 in0.0 mm 0.00 in0.0 mm
07:45 AM 54.9°F12.7°C 48.2°F9.0°C 76% 2.9 mph WSW4.7 kmh WSW 4.0 mph6.4 kmh 29.83 in1010.2 mb 0.00 in0.0 mm 0.00 in0.0 mm 0.00 in0.0 mm
07:50 AM 54.9°F12.7°C 48.2°F9.0°C 76% 2.2 mph WSW3.5 kmh WSW 4.0 mph6.4 kmh 29.83 in1010.2 mb 0.00 in0.0 mm 0.00 in0.0 mm 0.00 in0.0 mm
07:55 AM 55.0°F12.8°C 48.2°F9.0°C 76% 1.5 mph WSW2.4 kmh WSW 3.6 mph5.8 kmh 29.83 in1010.2 mb 0.00 in0.0 mm 0.00 in0.0 mm 0.00 in0.0 mm
08:00 AM 55.2°F12.9°C 48.2°F9.0°C 76% 2.0 mph WSW3.2 kmh WSW 3.4 mph5.5 kmh 29.83 in1010.2 mb 0.00 in0.0 mm 0.00 in0.0 mm 0.00 in0.0 mm
08:05 AM 55.4°F13.0°C 48.2°F9.0°C 77% 1.9 mph WSW3.1 kmh WSW 3.4 mph5.5 kmh 29.83 in1010.2 mb 0.00 in0.0 mm 0.00 in0.0 mm 0.00 in0.0 mm
08:10 AM 55.6°F13.1°C 48.2°F9.0°C 77% 1.4 mph SW2.3 kmh SW 2.7 mph4.3 kmh 29.83 in1010.2 mb 0.00 in0.0 mm 0.00 in0.0 mm 0.00 in0.0 mm
08:15 AM 55.8°F13.2°C 50.0°F10.0°C 77% 1.5 mph WSW2.4 kmh WSW 2.9 mph4.7 kmh 29.83 in1010.2 mb 0.00 in0.0 mm 0.00 in0.0 mm 0.00 in0.0 mm
08:20 AM 55.8°F13.2°C 50.0°F10.0°C 77% 1.6 mph W2.6 kmh W 2.9 mph4.7 kmh 29.83 in1010.2 mb 0.00 in0.0 mm 0.00 in0.0 mm 0.00 in0.0 mm
08:25 AM 55.6°F13.1°C 48.2°F9.0°C 77% 1.8 mph W2.9 kmh W 2.9 mph4.7 kmh 29.83 in1010.2 mb 0.00 in0.0 mm 0.00 in0.0 mm 0.00 in0.0 mm
08:30 AM 55.6°F13.1°C 48.2°F9.0°C 78% 2.1 mph WSW3.4 kmh WSW 2.9 mph4.7 kmh 29.83 in1010.2 mb 0.00 in0.0 mm 0.00 in0.0 mm 0.00 in0.0 mm
08:35 AM 55.6°F13.1°C 48.2°F9.0°C 78% 1.7 mph WSW2.7 kmh WSW 2.9 mph4.7 kmh 29.83 in1010.2 mb 0.00 in0.0 mm 0.00 in0.0 mm 0.00 in0.0 mm
08:40 AM 55.8°F13.2°C 50.0°F10.0°C 78% 2.1 mph W3.4 kmh W 2.9 mph4.7 kmh 29.86 in1011.2 mb 0.00 in0.0 mm 0.00 in0.0 mm 0.00 in0.0 mm
08:45 AM 55.8°F13.2°C 50.0°F10.0°C 78% 2.0 mph W3.2 kmh W 2.9 mph4.7 kmh 29.86 in1011.2 mb 0.00 in0.0 mm 0.00 in0.0 mm 0.00 in0.0 mm
08:50 AM 55.8°F13.2°C 50.0°F10.0°C 78% 1.5 mph WNW2.4 kmh WNW 3.4 mph5.5 kmh 29.86 in1011.2 mb 0.00 in0.0 mm 0.00 in0.0 mm 0.00 in0.0 mm
08:55 AM 56.1°F13.4°C 50.0°F10.0°C 78% 2.1 mph NW3.4 kmh NW 3.8 mph6.1 kmh 29.86 in1011.2 mb 0.00 in0.0 mm 0.00 in0.0 mm 0.00 in0.0 mm
09:00 AM 56.5°F13.6°C 50.0°F10.0°C 78% 2.6 mph N4.2 kmh N 3.8 mph6.1 kmh 29.86 in1011.2 mb 0.00 in0.0 mm 0.00 in0.0 mm 0.00 in0.0 mm
09:05 AM 56.7°F13.7°C 50.0°F10.0°C 78% 2.7 mph N4.3 kmh N 3.6 mph5.8 kmh 29.86 in1011.2 mb 0.00 in0.0 mm 0.00 in0.0 mm 0.00 in0.0 mm
09:10 AM 57.0°F13.9°C 50.0°F10.0°C 78% 2.5 mph N4.0 kmh N 3.4 mph5.5 kmh 29.86 in1011.2 mb 0.00 in0.0 mm 0.00 in0.0 mm 0.00 in0.0 mm
09:15 AM 57.0°F13.9°C 50.0°F10.0°C 78% 2.0 mph N3.2 kmh N 4.0 mph6.4 kmh 29.86 in1011.2 mb 0.00 in0.0 mm 0.00 in0.0 mm 0.00 in0.0 mm
09:20 AM 57.2°F14.0°C 50.0°F10.0°C 78% 2.3 mph N3.7 kmh N 4.0 mph6.4 kmh 29.86 in1011.2 mb 0.00 in0.0 mm 0.00 in0.0 mm 0.00 in0.0 mm
09:25 AM 57.4°F14.1°C 50.0°F10.0°C 78% 2.6 mph N4.2 kmh N 5.4 mph8.7 kmh 29.86 in1011.2 mb 0.00 in0.0 mm 0.00 in0.0 mm 0.00 in0.0 mm
09:30 AM 57.2°F14.0°C 50.0°F10.0°C 78% 3.3 mph N5.3 kmh N 5.4 mph8.7 kmh 29.86 in1011.2 mb 0.00 in0.0 mm 0.00 in0.0 mm 0.00 in0.0 mm
09:35 AM 57.6°F14.2°C 51.8°F11.0°C 78% 3.3 mph N5.3 kmh N 5.4 mph8.7 kmh 29.86 in1011.2 mb 0.00 in0.0 mm 0.00 in0.0 mm 0.00 in0.0 mm
09:40 AM 57.7°F14.3°C 51.8°F11.0°C 78% 2.0 mph N3.2 kmh N 3.4 mph5.5 kmh 29.86 in1011.2 mb 0.00 in0.0 mm 0.00 in0.0 mm 0.00 in0.0 mm
09:45 AM 57.7°F14.3°C 51.8°F11.0°C 78% 2.1 mph NNW3.4 kmh NNW 3.4 mph5.5 kmh 29.86 in1011.2 mb 0.00 in0.0 mm 0.00 in0.0 mm 0.00 in0.0 mm
09:50 AM 57.9°F14.4°C 51.8°F11.0°C 78% 2.1 mph N3.4 kmh N 3.4 mph5.5 kmh 29.86 in1011.2 mb 0.00 in0.0 mm 0.00 in0.0 mm 0.00 in0.0 mm
09:55 AM 58.1°F14.5°C 51.8°F11.0°C 78% 2.3 mph NE3.7 kmh NE 3.1 mph5.0 kmh 29.86 in1011.2 mb 0.00 in0.0 mm 0.00 in0.0 mm 0.00 in0.0 mm
10:00 AM 57.9°F14.4°C 51.8°F11.0°C 78% 2.7 mph NE4.3 kmh NE 4.9 mph7.9 kmh 29.86 in1011.2 mb 0.00 in0.0 mm 0.00 in0.0 mm 0.00 in0.0 mm
10:05 AM 57.9°F14.4°C 51.8°F11.0°C 78% 2.5 mph NE4.0 kmh NE 4.9 mph7.9 kmh 29.86 in1011.2 mb 0.00 in0.0 mm 0.00 in0.0 mm 0.00 in0.0 mm
10:10 AM 58.1°F14.5°C 51.8°F11.0°C 79% 2.7 mph NNE4.3 kmh NNE 4.0 mph6.4 kmh 29.86 in1011.2 mb 0.00 in0.0 mm 0.00 in0.0 mm 0.00 in0.0 mm
10:15 AM 58.1°F14.5°C 51.8°F11.0°C 79% 2.0 mph NNE3.2 kmh NNE 4.0 mph6.4 kmh 29.86 in1011.2 mb 0.00 in0.0 mm 0.00 in0.0 mm 0.00 in0.0 mm
10:20 AM 57.9°F14.4°C 51.8°F11.0°C 79% 1.4 mph N2.3 kmh N 2.5 mph4.0 kmh 29.86 in1011.2 mb 0.00 in0.0 mm 0.00 in0.0 mm 0.00 in0.0 mm
10:25 AM 57.9°F14.4°C 51.8°F11.0°C 79% 1.9 mph N3.1 kmh N 3.4 mph5.5 kmh 29.86 in1011.2 mb 0.06 in1.5 mm 0.72 in18.3 mm 0.06 in1.5 mm
10:30 AM 58.3°F14.6°C 51.8°F11.0°C 79% 2.2 mph N3.5 kmh N 3.4 mph5.5 kmh 29.86 in1011.2 mb 0.06 in1.5 mm 0.00 in0.0 mm 0.06 in1.5 mm
10:35 AM 58.6°F14.8°C 51.8°F11.0°C 79% 1.5 mph N2.4 kmh N 2.9 mph4.7 kmh 29.86 in1011.2 mb 0.06 in1.5 mm 0.00 in0.0 mm 0.06 in1.5 mm
10:40 AM 59.4°F15.2°C 53.6°F12.0°C 79% 1.8 mph N2.9 kmh N 3.8 mph6.1 kmh 29.86 in1011.2 mb 0.06 in1.5 mm 0.00 in0.0 mm 0.06 in1.5 mm
10:45 AM 59.5°F15.3°C 53.6°F12.0°C 78% 3.0 mph NW4.8 kmh NW 7.6 mph12.2 kmh 29.86 in1011.2 mb 0.06 in1.5 mm 0.00 in0.0 mm 0.06 in1.5 mm
10:50 AM 60.4°F15.8°C 53.6°F12.0°C 77% 4.6 mph NW7.4 kmh NW 7.6 mph12.2 kmh 29.86 in1011.2 mb 0.06 in1.5 mm 0.00 in0.0 mm 0.06 in1.5 mm
10:55 AM 61.9°F16.6°C 55.4°F13.0°C 77% 4.0 mph NW6.4 kmh NW 7.6 mph12.2 kmh 29.86 in1011.2 mb 0.06 in1.5 mm 0.00 in0.0 mm 0.06 in1.5 mm
11:00 AM 62.1°F16.7°C 55.4°F13.0°C 76% 3.4 mph NW5.5 kmh NW 5.8 mph9.3 kmh 29.86 in1011.2 mb 0.06 in1.5 mm 0.00 in0.0 mm 0.06 in1.5 mm
11:05 AM 62.6°F17.0°C 55.4°F13.0°C 74% 3.3 mph NW5.3 kmh NW 6.3 mph10.1 kmh 29.86 in1011.2 mb 0.06 in1.5 mm 0.00 in0.0 mm 0.06 in1.5 mm
11:10 AM 61.3°F16.3°C 53.6°F12.0°C 74% 4.1 mph NW6.6 kmh NW 8.1 mph13.0 kmh 29.86 in1011.2 mb 0.06 in1.5 mm 0.00 in0.0 mm 0.06 in1.5 mm
11:15 AM 61.2°F16.2°C 53.6°F12.0°C 75% 4.7 mph NW7.6 kmh NW 8.1 mph13.0 kmh 29.86 in1011.2 mb 0.06 in1.5 mm 0.00 in0.0 mm 0.06 in1.5 mm
11:20 AM 62.6°F17.0°C 53.6°F12.0°C 73% 4.0 mph WNW6.4 kmh WNW 8.1 mph13.0 kmh 29.86 in1011.2 mb 0.06 in1.5 mm 0.00 in0.0 mm 0.06 in1.5 mm
11:25 AM 65.8°F18.8°C 57.2°F14.0°C 72% 3.0 mph NW4.8 kmh NW 5.4 mph8.7 kmh 29.86 in1011.2 mb 0.00 in0.0 mm 0.00 in0.0 mm 0.06 in1.5 mm
11:30 AM 63.9°F17.7°C 55.4°F13.0°C 71% 2.1 mph N3.4 kmh N 4.0 mph6.4 kmh 29.86 in1011.2 mb 0.00 in0.0 mm 0.00 in0.0 mm 0.06 in1.5 mm
11:35 AM 63.9°F17.7°C 55.4°F13.0°C 71% 1.8 mph N2.9 kmh N 4.9 mph7.9 kmh 29.86 in1011.2 mb 0.00 in0.0 mm 0.00 in0.0 mm 0.06 in1.5 mm
11:40 AM 64.0°F17.8°C 55.4°F13.0°C 71% 2.1 mph N3.4 kmh N 4.9 mph7.9 kmh 29.86 in1011.2 mb 0.00 in0.0 mm 0.00 in0.0 mm 0.06 in1.5 mm
11:45 AM 63.0°F17.2°C 53.6°F12.0°C 71% 2.2 mph N3.5 kmh N 4.9 mph7.9 kmh 29.86 in1011.2 mb 0.00 in0.0 mm 0.00 in0.0 mm 0.06 in1.5 mm
11:50 AM 63.1°F17.3°C 53.6°F12.0°C 71% 2.5 mph NNW4.0 kmh NNW 3.8 mph6.1 kmh 29.86 in1011.2 mb 0.00 in0.0 mm 0.00 in0.0 mm 0.06 in1.5 mm
11:55 AM 66.6°F19.2°C 55.4°F13.0°C 68% 2.8 mph WNW4.5 kmh WNW 3.8 mph6.1 kmh 29.86 in1011.2 mb 0.00 in0.0 mm 0.00 in0.0 mm 0.06 in1.5 mm
12:00 PM 66.0°F18.9°C 55.4°F13.0°C 69% 2.6 mph WNW4.2 kmh WNW 3.8 mph6.1 kmh 29.86 in1011.2 mb 0.00 in0.0 mm 0.00 in0.0 mm 0.06 in1.5 mm
12:05 PM 66.4°F19.1°C 55.4°F13.0°C 67% 2.2 mph NW3.5 kmh NW 4.0 mph6.4 kmh 29.86 in1011.2 mb 0.00 in0.0 mm 0.00 in0.0 mm 0.06 in1.5 mm
12:10 PM 69.1°F20.6°C 57.2°F14.0°C 66% 3.2 mph NE5.1 kmh NE 5.4 mph8.7 kmh 29.86 in1011.2 mb 0.00 in0.0 mm 0.00 in0.0 mm 0.06 in1.5 mm
12:15 PM 66.6°F19.2°C 55.4°F13.0°C 67% 3.7 mph NE6.0 kmh NE 5.4 mph8.7 kmh 29.86 in1011.2 mb 0.00 in0.0 mm 0.00 in0.0 mm 0.06 in1.5 mm
12:20 PM 64.9°F18.3°C 55.4°F13.0°C 69% 3.7 mph NE6.0 kmh NE 7.2 mph11.6 kmh 29.86 in1011.2 mb 0.00 in0.0 mm 0.00 in0.0 mm 0.06 in1.5 mm
12:25 PM 64.0°F17.8°C 53.6°F12.0°C 69% 3.4 mph NE5.5 kmh NE 7.2 mph11.6 kmh 29.86 in1011.2 mb 0.00 in0.0 mm 0.00 in0.0 mm 0.06 in1.5 mm
12:30 PM 63.9°F17.7°C 53.6°F12.0°C 70% 3.4 mph NNE5.5 kmh NNE 5.8 mph9.3 kmh 29.86 in1011.2 mb 0.00 in0.0 mm 0.00 in0.0 mm 0.06 in1.5 mm
12:35 PM 63.5°F17.5°C 53.6°F12.0°C 70% 3.5 mph NNE5.6 kmh NNE 5.8 mph9.3 kmh 29.86 in1011.2 mb 0.00 in0.0 mm 0.00 in0.0 mm 0.06 in1.5 mm
12:40 PM 66.2°F19.0°C 55.4°F13.0°C 68% 3.0 mph NE4.8 kmh NE 5.4 mph8.7 kmh 29.86 in1011.2 mb 0.00 in0.0 mm 0.00 in0.0 mm 0.06 in1.5 mm
12:45 PM 67.3°F19.6°C 55.4°F13.0°C 66% 2.8 mph NE4.5 kmh NE 3.8 mph6.1 kmh 29.86 in1011.2 mb 0.00 in0.0 mm 0.00 in0.0 mm 0.06 in1.5 mm
12:50 PM 68.0°F20.0°C 55.4°F13.0°C 65% 2.8 mph E4.5 kmh E 3.6 mph5.8 kmh 29.86 in1011.2 mb 0.00 in0.0 mm 0.00 in0.0 mm 0.06 in1.5 mm
12:55 PM 66.6°F19.2°C 55.4°F13.0°C 66% 2.2 mph SE3.5 kmh SE 3.8 mph6.1 kmh 29.86 in1011.2 mb 0.00 in0.0 mm 0.00 in0.0 mm 0.06 in1.5 mm
01:00 PM 66.0°F18.9°C 55.4°F13.0°C 67% 1.8 mph SSW2.9 kmh SSW 3.8 mph6.1 kmh 29.86 in1011.2 mb 0.00 in0.0 mm 0.00 in0.0 mm 0.06 in1.5 mm
01:05 PM 62.2°F16.8°C 53.6°F12.0°C 72% 3.1 mph NW5.0 kmh NW 7.4 mph11.9 kmh 29.86 in1011.2 mb 0.00 in0.0 mm 0.00 in0.0 mm 0.06 in1.5 mm
01:10 PM 61.3°F16.3°C 53.6°F12.0°C 75% 3.9 mph NW6.3 kmh NW 7.4 mph11.9 kmh 29.89 in1012.2 mb 0.06 in1.5 mm 0.72 in18.3 mm 0.11 in2.8 mm
01:15 PM 61.2°F16.2°C 53.6°F12.0°C 75% 3.8 mph NNW6.1 kmh NNW 5.8 mph9.3 kmh 29.89 in1012.2 mb 0.06 in1.5 mm 0.00 in0.0 mm 0.11 in2.8 mm
01:20 PM 61.3°F16.3°C 53.6°F12.0°C 75% 3.8 mph NW6.1 kmh NW 5.8 mph9.3 kmh 29.89 in1012.2 mb 0.06 in1.5 mm 0.00 in0.0 mm 0.11 in2.8 mm
01:25 PM 61.7°F16.5°C 55.4°F13.0°C 75% 3.0 mph NW4.8 kmh NW 5.4 mph8.7 kmh 29.89 in1012.2 mb 0.06 in1.5 mm 0.00 in0.0 mm 0.11 in2.8 mm
01:30 PM 62.1°F16.7°C 55.4°F13.0°C 75% 2.6 mph NW4.2 kmh NW 5.4 mph8.7 kmh 29.89 in1012.2 mb 0.06 in1.5 mm 0.00 in0.0 mm 0.11 in2.8 mm
01:35 PM 63.0°F17.2°C 55.4°F13.0°C 73% 2.2 mph NW3.5 kmh NW 3.6 mph5.8 kmh 29.89 in1012.2 mb 0.06 in1.5 mm 0.00 in0.0 mm 0.11 in2.8 mm
01:40 PM 64.9°F18.3°C 55.4°F13.0°C 72% 2.0 mph N3.2 kmh N 3.4 mph5.5 kmh 29.89 in1012.2 mb 0.06 in1.5 mm 0.00 in0.0 mm 0.11 in2.8 mm
01:45 PM 66.2°F19.0°C 57.2°F14.0°C 71% 1.7 mph NE2.7 kmh NE 3.4 mph5.5 kmh 29.89 in1012.2 mb 0.06 in1.5 mm 0.00 in0.0 mm 0.11 in2.8 mm
01:50 PM 65.8°F18.8°C 57.2°F14.0°C 72% 2.5 mph E4.0 kmh E 4.3 mph6.9 kmh 29.89 in1012.2 mb 0.06 in1.5 mm 0.00 in0.0 mm 0.11 in2.8 mm
01:55 PM 67.3°F19.6°C 57.2°F14.0°C 70% 3.5 mph ESE5.6 kmh ESE 6.5 mph10.5 kmh 29.89 in1012.2 mb 0.06 in1.5 mm 0.00 in0.0 mm 0.11 in2.8 mm
02:00 PM 68.7°F20.4°C 57.2°F14.0°C 68% 4.4 mph SE7.1 kmh SE 6.5 mph10.5 kmh 29.89 in1012.2 mb 0.06 in1.5 mm 0.00 in0.0 mm 0.11 in2.8 mm
02:05 PM 67.6°F19.8°C 57.2°F14.0°C 68% 3.6 mph SE5.8 kmh SE 6.5 mph10.5 kmh 29.89 in1012.2 mb 0.00 in0.0 mm 0.00 in0.0 mm 0.11 in2.8 mm
02:10 PM 67.1°F19.5°C 57.2°F14.0°C 68% 3.1 mph SE5.0 kmh SE 5.6 mph9.0 kmh 29.89 in1012.2 mb 0.00 in0.0 mm 0.00 in0.0 mm 0.11 in2.8 mm
02:15 PM 67.1°F19.5°C 55.4°F13.0°C 67% 3.5 mph SE5.6 kmh SE 5.8 mph9.3 kmh 29.89 in1012.2 mb 0.00 in0.0 mm 0.00 in0.0 mm 0.11 in2.8 mm
02:20 PM 66.6°F19.2°C 55.4°F13.0°C 67% 3.8 mph SE6.1 kmh SE 6.0 mph9.7 kmh 29.89 in1012.2 mb 0.00 in0.0 mm 0.00 in0.0 mm 0.11 in2.8 mm
02:25 PM 66.2°F19.0°C 55.4°F13.0°C 67% 4.4 mph SE7.1 kmh SE 7.4 mph11.9 kmh 29.89 in1012.2 mb 0.00 in0.0 mm 0.00 in0.0 mm 0.11 in2.8 mm
02:30 PM 65.8°F18.8°C 55.4°F13.0°C 68% 4.8 mph SE7.7 kmh SE 7.4 mph11.9 kmh 29.89 in1012.2 mb 0.00 in0.0 mm 0.00 in0.0 mm 0.11 in2.8 mm
02:35 PM 65.3°F18.5°C 55.4°F13.0°C 68% 4.6 mph SE7.4 kmh SE 7.6 mph12.2 kmh 29.89 in1012.2 mb 0.00 in0.0 mm 0.00 in0.0 mm 0.11 in2.8 mm
02:40 PM 64.4°F18.0°C 53.6°F12.0°C 69% 5.2 mph SE8.4 kmh SE 8.5 mph13.7 kmh 29.89 in1012.2 mb 0.00 in0.0 mm 0.00 in0.0 mm 0.11 in2.8 mm
02:45 PM 63.5°F17.5°C 53.6°F12.0°C 69% 6.4 mph SE10.3 kmh SE 8.5 mph13.7 kmh 29.89 in1012.2 mb 0.00 in0.0 mm 0.00 in0.0 mm 0.11 in2.8 mm
02:50 PM 63.1°F17.3°C 53.6°F12.0°C 70% 6.1 mph SE9.8 kmh SE 8.5 mph13.7 kmh 29.89 in1012.2 mb 0.00 in0.0 mm 0.00 in0.0 mm 0.11 in2.8 mm
02:55 PM 62.6°F17.0°C 53.6°F12.0°C 70% 5.5 mph SE8.9 kmh SE 8.1 mph13.0 kmh 29.89 in1012.2 mb 0.00 in0.0 mm 0.00 in0.0 mm 0.11 in2.8 mm
03:00 PM 61.7°F16.5°C 53.6°F12.0°C 72% 5.3 mph SE8.5 kmh SE 6.7 mph10.8 kmh 29.89 in1012.2 mb 0.00 in0.0 mm 0.00 in0.0 mm 0.11 in2.8 mm
03:05 PM 60.3°F15.7°C 51.8°F11.0°C 74% 5.4 mph SE8.7 kmh SE 6.3 mph10.1 kmh 29.89 in1012.2 mb 0.07 in1.8 mm 0.84 in21.3 mm 0.18 in4.6 mm
03:10 PM 59.7°F15.4°C 53.6°F12.0°C 77% 3.8 mph SE6.1 kmh SE 6.3 mph10.1 kmh 29.89 in1012.2 mb 0.13 in3.3 mm 0.72 in18.3 mm 0.24 in6.1 mm
03:15 PM 59.5°F15.3°C 53.6°F12.0°C 78% 2.9 mph SE4.7 kmh SE 4.9 mph7.9 kmh 29.89 in1012.2 mb 0.13 in3.3 mm 0.00 in0.0 mm 0.24 in6.1 mm
03:20 PM 59.2°F15.1°C 51.8°F11.0°C 78% 2.8 mph SSE4.5 kmh SSE 5.6 mph9.0 kmh 29.89 in1012.2 mb 0.13 in3.3 mm 0.00 in0.0 mm 0.24 in6.1 mm
03:25 PM 59.0°F15.0°C 51.8°F11.0°C 78% 3.2 mph SSE5.1 kmh SSE 7.8 mph12.6 kmh 29.89 in1012.2 mb 0.13 in3.3 mm 0.00 in0.0 mm 0.24 in6.1 mm
03:30 PM 58.8°F14.9°C 51.8°F11.0°C 78% 4.9 mph SE7.9 kmh SE 8.1 mph13.0 kmh 29.89 in1012.2 mb 0.13 in3.3 mm 0.00 in0.0 mm 0.24 in6.1 mm
03:35 PM 58.8°F14.9°C 51.8°F11.0°C 78% 4.7 mph SE7.6 kmh SE 8.1 mph13.0 kmh 29.89 in1012.2 mb 0.18 in4.6 mm 0.60 in15.2 mm 0.29 in7.4 mm
03:40 PM 58.8°F14.9°C 51.8°F11.0°C 78% 3.9 mph SE6.3 kmh SE 5.6 mph9.0 kmh 29.89 in1012.2 mb 0.18 in4.6 mm 0.00 in0.0 mm 0.29 in7.4 mm
03:45 PM 59.2°F15.1°C 53.6°F12.0°C 79% 4.0 mph ESE6.4 kmh ESE 4.9 mph7.9 kmh 29.89 in1012.2 mb 0.18 in4.6 mm 0.00 in0.0 mm 0.29 in7.4 mm
03:50 PM 59.4°F15.2°C 53.6°F12.0°C 78% 5.1 mph E8.2 kmh E 7.4 mph11.9 kmh 29.89 in1012.2 mb 0.18 in4.6 mm 0.00 in0.0 mm 0.29 in7.4 mm
03:55 PM 59.5°F15.3°C 53.6°F12.0°C 78% 5.8 mph E9.3 kmh E 7.4 mph11.9 kmh 29.89 in1012.2 mb 0.18 in4.6 mm 0.00 in0.0 mm 0.29 in7.4 mm
04:00 PM 59.5°F15.3°C 53.6°F12.0°C 78% 5.4 mph E8.7 kmh E 7.4 mph11.9 kmh 29.89 in1012.2 mb 0.18 in4.6 mm 0.00 in0.0 mm 0.29 in7.4 mm
04:05 PM 59.0°F15.0°C 51.8°F11.0°C 78% 5.7 mph ESE9.2 kmh ESE 8.1 mph13.0 kmh 29.89 in1012.2 mb 0.11 in2.8 mm 0.00 in0.0 mm 0.29 in7.4 mm
04:10 PM 59.2°F15.1°C 51.8°F11.0°C 78% 5.1 mph ESE8.2 kmh ESE 8.1 mph13.0 kmh 29.89 in1012.2 mb 0.06 in1.5 mm 0.00 in0.0 mm 0.29 in7.4 mm
04:15 PM 59.2°F15.1°C 51.8°F11.0°C 78% 4.3 mph ESE6.9 kmh ESE 6.5 mph10.5 kmh 29.89 in1012.2 mb 0.06 in1.5 mm 0.00 in0.0 mm 0.29 in7.4 mm
04:20 PM 59.2°F15.1°C 51.8°F11.0°C 78% 4.1 mph E6.6 kmh E 6.5 mph10.5 kmh 29.89 in1012.2 mb 0.06 in1.5 mm 0.00 in0.0 mm 0.29 in7.4 mm
04:25 PM 59.0°F15.0°C 51.8°F11.0°C 77% 4.3 mph E6.9 kmh E 6.0 mph9.7 kmh 29.89 in1012.2 mb 0.06 in1.5 mm 0.00 in0.0 mm 0.29 in7.4 mm
04:30 PM 58.8°F14.9°C 51.8°F11.0°C 77% 4.3 mph ESE6.9 kmh ESE 6.0 mph9.7 kmh 29.89 in1012.2 mb 0.06 in1.5 mm 0.00 in0.0 mm 0.29 in7.4 mm
04:35 PM 58.6°F14.8°C 51.8°F11.0°C 77% 4.0 mph ESE6.4 kmh ESE 6.0 mph9.7 kmh 29.89 in1012.2 mb 0.00 in0.0 mm 0.00 in0.0 mm 0.29 in7.4 mm
04:40 PM 58.5°F14.7°C 51.8°F11.0°C 76% 5.5 mph SE8.9 kmh SE 12.5 mph20.1 kmh 29.89 in1012.2 mb 0.00 in0.0 mm 0.00 in0.0 mm 0.29 in7.4 mm
04:45 PM 58.3°F14.6°C 51.8°F11.0°C 76% 6.9 mph SE11.1 kmh SE 12.5 mph20.1 kmh 29.89 in1012.2 mb 0.00 in0.0 mm 0.00 in0.0 mm 0.29 in7.4 mm
04:50 PM 58.3°F14.6°C 51.8°F11.0°C 77% 7.0 mph SE11.3 kmh SE 9.2 mph14.8 kmh 29.89 in1012.2 mb 0.00 in0.0 mm 0.00 in0.0 mm 0.29 in7.4 mm
04:55 PM 58.3°F14.6°C 51.8°F11.0°C 77% 6.1 mph SE9.8 kmh SE 8.7 mph14.0 kmh 29.89 in1012.2 mb 0.00 in0.0 mm 0.00 in0.0 mm 0.29 in7.4 mm
05:00 PM 58.1°F14.5°C 51.8°F11.0°C 76% 5.9 mph SE9.5 kmh SE 8.1 mph13.0 kmh 29.89 in1012.2 mb 0.00 in0.0 mm 0.00 in0.0 mm 0.29 in7.4 mm
05:05 PM 57.9°F14.4°C 50.0°F10.0°C 76% 5.8 mph SE9.3 kmh SE 8.1 mph13.0 kmh 29.89 in1012.2 mb 0.00 in0.0 mm 0.00 in0.0 mm 0.29 in7.4 mm
05:10 PM 57.9°F14.4°C 50.0°F10.0°C 76% 5.4 mph SE8.7 kmh SE 8.9 mph14.3 kmh 29.89 in1012.2 mb 0.00 in0.0 mm 0.00 in0.0 mm 0.29 in7.4 mm
05:15 PM 57.7°F14.3°C 50.0°F10.0°C 76% 4.9 mph SE7.9 kmh SE 8.9 mph14.3 kmh 29.89 in1012.2 mb 0.00 in0.0 mm 0.00 in0.0 mm 0.29 in7.4 mm
05:20 PM 57.6°F14.2°C 50.0°F10.0°C 76% 4.8 mph SE7.7 kmh SE 7.6 mph12.2 kmh 29.89 in1012.2 mb 0.00 in0.0 mm 0.00 in0.0 mm 0.29 in7.4 mm
05:25 PM 57.4°F14.1°C 50.0°F10.0°C 76% 5.1 mph SE8.2 kmh SE 7.6 mph12.2 kmh 29.89 in1012.2 mb 0.00 in0.0 mm 0.00 in0.0 mm 0.29 in7.4 mm
05:30 PM 57.2°F14.0°C 50.0°F10.0°C 76% 4.8 mph SE7.7 kmh SE 8.5 mph13.7 kmh 29.89 in1012.2 mb 0.00 in0.0 mm 0.00 in0.0 mm 0.29 in7.4 mm
05:35 PM 57.4°F14.1°C 50.0°F10.0°C 76% 4.5 mph SSE7.2 kmh SSE 8.5 mph13.7 kmh 29.89 in1012.2 mb 0.00 in0.0 mm 0.00 in0.0 mm 0.29 in7.4 mm
05:40 PM 57.4°F14.1°C 50.0°F10.0°C 75% 4.9 mph SE7.9 kmh SE 6.3 mph10.1 kmh 29.89 in1012.2 mb 0.00 in0.0 mm 0.00 in0.0 mm 0.29 in7.4 mm
05:45 PM 57.4°F14.1°C 50.0°F10.0°C 75% 4.8 mph SE7.7 kmh SE 6.3 mph10.1 kmh 29.89 in1012.2 mb 0.00 in0.0 mm 0.00 in0.0 mm 0.29 in7.4 mm
05:50 PM 57.4°F14.1°C 50.0°F10.0°C 75% 4.3 mph SE6.9 kmh SE 6.5 mph10.5 kmh 29.89 in1012.2 mb 0.00 in0.0 mm 0.00 in0.0 mm 0.29 in7.4 mm
05:55 PM 57.6°F14.2°C 50.0°F10.0°C 75% 4.8 mph SE7.7 kmh SE 6.5 mph10.5 kmh 29.89 in1012.2 mb 0.00 in0.0 mm 0.00 in0.0 mm 0.29 in7.4 mm
06:00 PM 57.6°F14.2°C 50.0°F10.0°C 75% 4.9 mph SE7.9 kmh SE 6.5 mph10.5 kmh 29.89 in1012.2 mb 0.00 in0.0 mm 0.00 in0.0 mm 0.29 in7.4 mm
06:05 PM 57.4°F14.1°C 50.0°F10.0°C 76% 3.7 mph SE6.0 kmh SE 6.3 mph10.1 kmh 29.89 in1012.2 mb 0.00 in0.0 mm 0.00 in0.0 mm 0.29 in7.4 mm
06:10 PM 57.2°F14.0°C 50.0°F10.0°C 75% 3.6 mph SE5.8 kmh SE 5.4 mph8.7 kmh 29.92 in1013.2 mb 0.00 in0.0 mm 0.00 in0.0 mm 0.29 in7.4 mm
06:15 PM 57.0°F13.9°C 50.0°F10.0°C 76% 3.8 mph SE6.1 kmh SE 4.9 mph7.9 kmh 29.92 in1013.2 mb 0.00 in0.0 mm 0.00 in0.0 mm 0.29 in7.4 mm
06:20 PM 56.8°F13.8°C 50.0°F10.0°C 76% 3.8 mph SE6.1 kmh SE 6.0 mph9.7 kmh 29.92 in1013.2 mb 0.00 in0.0 mm 0.00 in0.0 mm 0.29 in7.4 mm
06:25 PM 56.7°F13.7°C 50.0°F10.0°C 76% 4.3 mph SE6.9 kmh SE 6.0 mph9.7 kmh 29.92 in1013.2 mb 0.00 in0.0 mm 0.00 in0.0 mm 0.29 in7.4 mm
06:30 PM 56.5°F13.6°C 50.0°F10.0°C 76% 3.4 mph SE5.5 kmh SE 5.4 mph8.7 kmh 29.92 in1013.2 mb 0.00 in0.0 mm 0.00 in0.0 mm 0.29 in7.4 mm
06:35 PM 56.1°F13.4°C 48.2°F9.0°C 76% 3.0 mph SE4.8 kmh SE 4.0 mph6.4 kmh 29.92 in1013.2 mb 0.00 in0.0 mm 0.00 in0.0 mm 0.29 in7.4 mm
06:40 PM 56.1°F13.4°C 48.2°F9.0°C 76% 3.3 mph SE5.3 kmh SE 4.0 mph6.4 kmh 29.92 in1013.2 mb 0.00 in0.0 mm 0.00 in0.0 mm 0.29 in7.4 mm
06:45 PM 55.9°F13.3°C 50.0°F10.0°C 77% 2.3 mph SE3.7 kmh SE 3.6 mph5.8 kmh 29.92 in1013.2 mb 0.00 in0.0 mm 0.00 in0.0 mm 0.29 in7.4 mm
06:50 PM 55.8°F13.2°C 50.0°F10.0°C 77% 1.6 mph SE2.6 kmh SE 3.4 mph5.5 kmh 29.92 in1013.2 mb 0.00 in0.0 mm 0.00 in0.0 mm 0.29 in7.4 mm
06:55 PM 55.9°F13.3°C 50.0°F10.0°C 77% 0.9 mph SE1.4 kmh SE 2.7 mph4.3 kmh 29.92 in1013.2 mb 0.00 in0.0 mm 0.00 in0.0 mm 0.29 in7.4 mm
07:00 PM 55.9°F13.3°C 50.0°F10.0°C 78% 0.8 mph SE1.3 kmh SE 2.7 mph4.3 kmh 29.92 in1013.2 mb 0.00 in0.0 mm 0.00 in0.0 mm 0.29 in7.4 mm
07:05 PM 55.9°F13.3°C 50.0°F10.0°C 78% 0.6 mph SE1.0 kmh SE 2.7 mph4.3 kmh 29.92 in1013.2 mb 0.00 in0.0 mm 0.00 in0.0 mm 0.29 in7.4 mm
07:10 PM 55.9°F13.3°C 50.0°F10.0°C 78% 0.7 mph ESE1.1 kmh ESE 2.9 mph4.7 kmh 29.92 in1013.2 mb 0.00 in0.0 mm 0.00 in0.0 mm 0.29 in7.4 mm
07:15 PM 55.9°F13.3°C 50.0°F10.0°C 78% 1.9 mph SE3.1 kmh SE 3.1 mph5.0 kmh 29.92 in1013.2 mb 0.00 in0.0 mm 0.00 in0.0 mm 0.29 in7.4 mm
07:20 PM 55.9°F13.3°C 50.0°F10.0°C 78% 2.4 mph SE3.9 kmh SE 3.1 mph5.0 kmh 29.92 in1013.2 mb 0.00 in0.0 mm 0.00 in0.0 mm 0.29 in7.4 mm
07:25 PM 55.8°F13.2°C 50.0°F10.0°C 78% 2.7 mph SE4.3 kmh SE 4.3 mph6.9 kmh 29.92 in1013.2 mb 0.00 in0.0 mm 0.00 in0.0 mm 0.29 in7.4 mm
07:30 PM 55.6°F13.1°C 48.2°F9.0°C 78% 1.7 mph SE2.7 kmh SE 4.3 mph6.9 kmh 29.92 in1013.2 mb 0.00 in0.0 mm 0.00 in0.0 mm 0.29 in7.4 mm
07:35 PM 55.4°F13.0°C 50.0°F10.0°C 79% 0.7 mph E1.1 kmh E 2.7 mph4.3 kmh 29.92 in1013.2 mb 0.00 in0.0 mm 0.00 in0.0 mm 0.29 in7.4 mm
07:40 PM 55.0°F12.8°C 50.0°F10.0°C 79% 1.5 mph E2.4 kmh E 2.7 mph4.3 kmh 29.92 in1013.2 mb 0.00 in0.0 mm 0.00 in0.0 mm 0.29 in7.4 mm
07:45 PM 54.9°F12.7°C 48.2°F9.0°C 79% 1.7 mph E2.7 kmh E 2.7 mph4.3 kmh 29.92 in1013.2 mb 0.00 in0.0 mm 0.00 in0.0 mm 0.29 in7.4 mm
07:50 PM 54.7°F12.6°C 48.2°F9.0°C 79% 1.6 mph E2.6 kmh E 2.9 mph4.7 kmh 29.92 in1013.2 mb 0.00 in0.0 mm 0.00 in0.0 mm 0.29 in7.4 mm
07:55 PM 54.5°F12.5°C 48.2°F9.0°C 79% 1.3 mph ENE2.1 kmh ENE 2.9 mph4.7 kmh 29.92 in1013.2 mb 0.00 in0.0 mm 0.00 in0.0 mm 0.29 in7.4 mm
08:00 PM 54.3°F12.4°C 48.2°F9.0°C 79% 0.9 mph NE1.4 kmh NE 2.7 mph4.3 kmh 29.92 in1013.2 mb 0.00 in0.0 mm 0.00 in0.0 mm 0.29 in7.4 mm
08:05 PM 54.0°F12.2°C 48.2°F9.0°C 79% 0.3 mph NE0.5 kmh NE 2.7 mph4.3 kmh 29.92 in1013.2 mb 0.00 in0.0 mm 0.00 in0.0 mm 0.29 in7.4 mm
08:10 PM 53.8°F12.1°C 48.2°F9.0°C 79% 0.2 mph NE0.3 kmh NE 1.1 mph1.8 kmh 29.92 in1013.2 mb 0.00 in0.0 mm 0.00 in0.0 mm 0.29 in7.4 mm
08:15 PM 53.6°F12.0°C 48.2°F9.0°C 79% 0.2 mph NE0.3 kmh NE 1.1 mph1.8 kmh 29.92 in1013.2 mb 0.00 in0.0 mm 0.00 in0.0 mm 0.29 in7.4 mm
08:20 PM 53.4°F11.9°C 48.2°F9.0°C 79% 0.2 mph NE0.3 kmh NE 0.9 mph1.4 kmh 29.92 in1013.2 mb 0.00 in0.0 mm 0.00 in0.0 mm 0.29 in7.4 mm
08:25 PM 53.2°F11.8°C 46.4°F8.0°C 79% 0.2 mph NE0.3 kmh NE 1.1 mph1.8 kmh 29.92 in1013.2 mb 0.00 in0.0 mm 0.00 in0.0 mm 0.29 in7.4 mm
08:30 PM 52.9°F11.6°C 46.4°F8.0°C 79% 0.5 mph N0.8 kmh N 2.9 mph4.7 kmh 29.92 in1013.2 mb 0.00 in0.0 mm 0.00 in0.0 mm 0.29 in7.4 mm
08:35 PM 52.7°F11.5°C 46.4°F8.0°C 79% 0.4 mph N0.6 kmh N 2.9 mph4.7 kmh 29.92 in1013.2 mb 0.00 in0.0 mm 0.00 in0.0 mm 0.29 in7.4 mm
08:40 PM 52.7°F11.5°C 48.2°F9.0°C 80% 0.1 mph NNE0.2 kmh NNE 1.3 mph2.1 kmh 29.92 in1013.2 mb 0.00 in0.0 mm 0.00 in0.0 mm 0.29 in7.4 mm
08:45 PM 52.5°F11.4°C 46.4°F8.0°C 80% Calm Calm -- 29.92 in1013.2 mb 0.00 in0.0 mm 0.00 in0.0 mm 0.29 in7.4 mm
08:50 PM 52.5°F11.4°C 46.4°F8.0°C 80% Calm Calm -- 29.92 in1013.2 mb 0.00 in0.0 mm 0.00 in0.0 mm 0.29 in7.4 mm
08:55 PM 52.5°F11.4°C 46.4°F8.0°C 79% Calm Calm -- 29.92 in1013.2 mb 0.00 in0.0 mm 0.00 in0.0 mm 0.29 in7.4 mm
09:00 PM 52.3°F11.3°C 46.4°F8.0°C 79% Calm Calm -- 29.92 in1013.2 mb 0.00 in0.0 mm 0.00 in0.0 mm 0.29 in7.4 mm
09:05 PM 52.2°F11.2°C 46.4°F8.0°C 79% Calm Calm -- 29.92 in1013.2 mb 0.00 in0.0 mm 0.00 in0.0 mm 0.29 in7.4 mm
09:10 PM 52.0°F11.1°C 46.4°F8.0°C 80% 0.2 mph NNE0.3 kmh NNE 1.1 mph1.8 kmh 29.92 in1013.2 mb 0.00 in0.0 mm 0.00 in0.0 mm 0.29 in7.4 mm
09:15 PM 52.0°F11.1°C 46.4°F8.0°C 80% 1.1 mph NNE1.8 kmh NNE 2.5 mph4.0 kmh 29.92 in1013.2 mb 0.00 in0.0 mm 0.00 in0.0 mm 0.29 in7.4 mm
09:20 PM 51.8°F11.0°C 46.4°F8.0°C 80% 1.6 mph NNE2.6 kmh NNE 2.5 mph4.0 kmh 29.92 in1013.2 mb 0.00 in0.0 mm 0.00 in0.0 mm 0.29 in7.4 mm
09:25 PM 51.4°F10.8°C 46.4°F8.0°C 80% 1.6 mph NNE2.6 kmh NNE 2.5 mph4.0 kmh 29.92 in1013.2 mb 0.00 in0.0 mm 0.00 in0.0 mm 0.29 in7.4 mm
09:30 PM 51.3°F10.7°C 46.4°F8.0°C 80% 1.7 mph NNE2.7 kmh NNE 2.7 mph4.3 kmh 29.92 in1013.2 mb 0.00 in0.0 mm 0.00 in0.0 mm 0.29 in7.4 mm
09:35 PM 51.1°F10.6°C 46.4°F8.0°C 80% 1.3 mph NNE2.1 kmh NNE 2.7 mph4.3 kmh 29.92 in1013.2 mb 0.00 in0.0 mm 0.00 in0.0 mm 0.29 in7.4 mm
09:40 PM 50.9°F10.5°C 46.4°F8.0°C 80% 0.5 mph NNE0.8 kmh NNE 1.6 mph2.6 kmh 29.92 in1013.2 mb 0.00 in0.0 mm 0.00 in0.0 mm 0.29 in7.4 mm
09:45 PM 50.7°F10.4°C 44.6°F7.0°C 80% Calm Calm -- 29.92 in1013.2 mb 0.00 in0.0 mm 0.00 in0.0 mm 0.29 in7.4 mm
09:50 PM 50.7°F10.4°C 44.6°F7.0°C 80% 0.1 mph NNE0.2 kmh NNE 0.9 mph1.4 kmh 29.92 in1013.2 mb 0.00 in0.0 mm 0.00 in0.0 mm 0.29 in7.4 mm
09:55 PM 50.5°F10.3°C 44.6°F7.0°C 80% 0.1 mph NNE0.2 kmh NNE 0.9 mph1.4 kmh 29.92 in1013.2 mb 0.00 in0.0 mm 0.00 in0.0 mm 0.29 in7.4 mm
10:00 PM 50.4°F10.2°C 44.6°F7.0°C 80% 0.1 mph NNE0.2 kmh NNE 0.9 mph1.4 kmh 29.92 in1013.2 mb 0.00 in0.0 mm 0.00 in0.0 mm 0.29 in7.4 mm
10:05 PM 50.2°F10.1°C 44.6°F7.0°C 80% Calm Calm -- 29.92 in1013.2 mb 0.00 in0.0 mm 0.00 in0.0 mm 0.29 in7.4 mm
10:10 PM 50.0°F10.0°C 44.6°F7.0°C 80% 0.9 mph NNE1.4 kmh NNE 2.5 mph4.0 kmh 29.92 in1013.2 mb 0.00 in0.0 mm 0.00 in0.0 mm 0.29 in7.4 mm
10:15 PM 49.8°F9.9°C 44.6°F7.0°C 80% 1.3 mph NNE2.1 kmh NNE 2.5 mph4.0 kmh 29.92 in1013.2 mb 0.00 in0.0 mm 0.00 in0.0 mm 0.29 in7.4 mm
10:20 PM 49.8°F9.9°C 44.6°F7.0°C 80% 0.5 mph NNE0.8 kmh NNE 2.2 mph3.5 kmh 29.92 in1013.2 mb 0.00 in0.0 mm 0.00 in0.0 mm 0.29 in7.4 mm
10:25 PM 49.6°F9.8°C 44.6°F7.0°C 80% 0.2 mph NNE0.3 kmh NNE 1.1 mph1.8 kmh 29.92 in1013.2 mb 0.00 in0.0 mm 0.00 in0.0 mm 0.29 in7.4 mm
10:30 PM 49.3°F9.6°C 42.8°F6.0°C 79% 0.3 mph NNE0.5 kmh NNE 1.3 mph2.1 kmh 29.92 in1013.2 mb 0.00 in0.0 mm 0.00 in0.0 mm 0.29 in7.4 mm
10:35 PM 48.9°F9.4°C 42.8°F6.0°C 79% 0.8 mph NNE1.3 kmh NNE 2.2 mph3.5 kmh 29.92 in1013.2 mb 0.00 in0.0 mm 0.00 in0.0 mm 0.29 in7.4 mm
10:40 PM 48.9°F9.4°C 42.8°F6.0°C 79% 1.0 mph NNE1.6 kmh NNE 2.2 mph3.5 kmh 29.92 in1013.2 mb 0.00 in0.0 mm 0.00 in0.0 mm 0.29 in7.4 mm
10:45 PM 48.9°F9.4°C 42.8°F6.0°C 80% 0.5 mph NNE0.8 kmh NNE 1.3 mph2.1 kmh 29.92 in1013.2 mb 0.00 in0.0 mm 0.00 in0.0 mm 0.29 in7.4 mm
10:50 PM 48.9°F9.4°C 42.8°F6.0°C 80% 0.7 mph NNE1.1 kmh NNE 1.3 mph2.1 kmh 29.92 in1013.2 mb 0.00 in0.0 mm 0.00 in0.0 mm 0.29 in7.4 mm
10:55 PM 48.6°F9.2°C 42.8°F6.0°C 80% 0.4 mph NNE0.6 kmh NNE 1.3 mph2.1 kmh 29.92 in1013.2 mb 0.00 in0.0 mm 0.00 in0.0 mm 0.29 in7.4 mm
11:00 PM 48.4°F9.1°C 42.8°F6.0°C 79% Calm Calm -- 29.92 in1013.2 mb 0.00 in0.0 mm 0.00 in0.0 mm 0.30 in7.6 mm
11:05 PM 48.4°F9.1°C 42.8°F6.0°C 79% Calm Calm -- 29.92 in1013.2 mb 0.00 in0.0 mm 0.00 in0.0 mm 0.30 in7.6 mm
11:10 PM 48.2°F9.0°C 42.8°F6.0°C 80% Calm Calm -- 29.92 in1013.2 mb 0.00 in0.0 mm 0.00 in0.0 mm 0.30 in7.6 mm
11:15 PM 48.4°F9.1°C 42.8°F6.0°C 80% 0.1 mph NNE0.2 kmh NNE 0.9 mph1.4 kmh 29.92 in1013.2 mb 0.00 in0.0 mm 0.00 in0.0 mm 0.30 in7.6 mm
11:20 PM 48.2°F9.0°C 42.8°F6.0°C 80% 0.6 mph NNE1.0 kmh NNE 1.6 mph2.6 kmh 29.92 in1013.2 mb 0.00 in0.0 mm 0.00 in0.0 mm 0.30 in7.6 mm
11:25 PM 48.0°F8.9°C 42.8°F6.0°C 80% 1.3 mph NNE2.1 kmh NNE 2.0 mph3.2 kmh 29.92 in1013.2 mb 0.00 in0.0 mm 0.00 in0.0 mm 0.30 in7.6 mm
11:30 PM 47.8°F8.8°C 42.8°F6.0°C 80% 0.8 mph NNE1.3 kmh NNE 2.0 mph3.2 kmh 29.92 in1013.2 mb 0.00 in0.0 mm 0.00 in0.0 mm 0.30 in7.6 mm
11:35 PM 47.7°F8.7°C 42.8°F6.0°C 80% 0.4 mph NNE0.6 kmh NNE 2.0 mph3.2 kmh 29.92 in1013.2 mb 0.00 in0.0 mm 0.00 in0.0 mm 0.30 in7.6 mm
11:40 PM 47.5°F8.6°C 42.8°F6.0°C 80% 0.8 mph NNE1.3 kmh NNE 2.0 mph3.2 kmh 29.92 in1013.2 mb 0.00 in0.0 mm 0.00 in0.0 mm 0.30 in7.6 mm
11:45 PM 47.7°F8.7°C 42.8°F6.0°C 80% 0.8 mph NNE1.3 kmh NNE 2.0 mph3.2 kmh 29.92 in1013.2 mb 0.00 in0.0 mm 0.00 in0.0 mm 0.30 in7.6 mm
11:50 PM 47.5°F8.6°C 42.8°F6.0°C 80% 0.4 mph NNE0.6 kmh NNE 2.0 mph3.2 kmh 29.92 in1013.2 mb 0.00 in0.0 mm 0.00 in0.0 mm 0.30 in7.6 mm
11:55 PM 47.3°F8.5°C 42.8°F6.0°C 80% 0.3 mph NNE0.5 kmh NNE 1.1 mph1.8 kmh 29.92 in1013.2 mb 0.00 in0.0 mm 0.00 in0.0 mm 0.30 in7.6 mm